Arkoma, OK

4:51 AM CDT on October 31, 2014 (GMT -0500)
LCEM - Arkoma Elem. School | Change Station
CLOSE
Current Station
Personal Weather Station
Location: Arkoma, OK
Elevation: 597 ft
Nearby Weather Stations
Active Advisory: Freeze Warning

Elev 597 ft 35.35 °N, 94.44 °W | Updated 3 seconds ago

Clear
Clear
51.3 °F
Feels Like 51.3 °F
N
2.9
Wind Variable Wind from West
Gusts 4.0 mph

Today
High -- | Low -- °F
--% Chance of Precip.
Yesterday
High -- | Low -- °F
Precip. -- in
7:38 AM 6:23 PM
First Quarter, 53% visible
Pressure 30.14 in
Visibility 10.0 miles
Clouds Clear
Dew Point 44 °F
Humidity 76%
Rainfall 0.00 in
Snow Depth Not available.
UV 12.2 out of 12
Pollen 4.10 out of 12
Air Quality Not available.
Flu Activity Not available.
METAR KFSM 310853Z 29007KT 10SM CLR 11/05 A3015 RMK AO2 SLP207 T01110050 53007

More Conditions Fewer Conditions

Pressure 30.14 in
Visibility 10.0 miles
Clouds Clear
Dew Point 44 °F
Humidity 76%
Rainfall 0.00 in
Snow Depth Not available.
UV 12.2 out of 12
Pollen 4.10 out of 12
Air Quality Not available.
Flu Activity Not available.
METAR KFSM 310853Z 29007KT 10SM CLR 11/05 A3015 RMK AO2 SLP207 T01110050 53007

More Conditions Fewer Conditions

10-Day Weather Forecast

Almanac

Astronomy

Oct. 31, 2014 Rise Set
Actual Time
Civil Twilight
Nautical Twilight
Astronomical Twilight
Moon
Length of Visible Light
Length of Day
Tomorrow will be .
, % of the Moon is Illuminated

Today's Extremes

State Highs State Lows

Community

WunderPhotos

Upload Photos

1,766,577 photos uploaded!

WunderBlogs® & News

Nearby

Air Quality

  Air Quality AQ Index Pollutant
Not available.

Snow Depth

Station Depth Elevation

Earthquake Activity

City Distance Mag. Time & Date
Minimum magnitude displayed is 2.5.

Coastal Water Temperatures

Place Temperature

Nearby Weather Stations